createdAt,value
2023-03-25T00:00:16.003Z,99049.13
2023-03-25T00:00:59.552Z,99057.47
2023-03-25T00:01:41.363Z,99048.09
2023-03-25T00:02:24.106Z,99044.81
2023-03-25T00:03:05.929Z,99040.16
2023-03-25T00:03:50.444Z,99064.63
2023-03-25T00:04:35.022Z,99015.25
2023-03-25T00:05:19.740Z,99060.09
2023-03-25T00:06:02.008Z,99053.78
2023-03-25T00:06:43.961Z,99043.59
2023-03-25T00:07:25.764Z,99032.16
2023-03-25T00:08:07.413Z,99040.09
2023-03-25T00:08:49.168Z,99049.88
2023-03-25T00:09:30.938Z,99059.50
2023-03-25T00:10:13.750Z,99042.94
2023-03-25T00:10:58.951Z,99065.19
2023-03-25T00:11:40.636Z,99055.00
2023-03-25T00:12:22.303Z,99060.31
2023-03-25T00:13:05.510Z,99048.91
2023-03-25T00:13:50.415Z,99046.25
2023-03-25T00:14:32.942Z,99057.66
2023-03-25T00:15:16.223Z,99045.81
2023-03-25T00:15:58.918Z,99052.56
2023-03-25T00:16:40.641Z,99053.97
2023-03-25T00:17:23.546Z,99054.00
2023-03-25T00:18:05.431Z,99056.66
2023-03-25T00:18:47.963Z,99041.34
2023-03-25T00:19:29.850Z,99055.22
2023-03-25T00:20:11.963Z,99059.50
2023-03-25T00:20:53.613Z,99051.53
2023-03-25T00:21:35.488Z,99062.56
2023-03-25T00:22:19.955Z,99045.00
2023-03-25T00:23:01.628Z,99053.59
2023-03-25T00:23:43.358Z,99065.59
2023-03-25T00:24:25.207Z,99055.00
2023-03-25T00:25:12.076Z,99052.59
2023-03-25T00:25:56.195Z,99051.75
2023-03-25T00:26:42.628Z,99058.91
2023-03-25T00:27:24.410Z,99059.28
2023-03-25T00:28:06.128Z,99065.38
2023-03-25T00:28:47.753Z,99045.00
2023-03-25T00:29:29.454Z,99060.31
2023-03-25T00:30:11.745Z,99048.06
2023-03-25T00:30:53.936Z,99049.06
2023-03-25T00:31:35.707Z,99053.56
2023-03-25T00:32:17.405Z,99046.41
2023-03-25T00:33:01.732Z,99045.41
2023-03-25T00:33:43.582Z,99060.50
2023-03-25T00:34:25.862Z,99045.22
2023-03-25T00:35:08.503Z,99049.88
2023-03-25T00:35:54.520Z,99066.41
2023-03-25T00:36:37.594Z,99056.97
2023-03-25T00:37:21.712Z,99052.69
2023-03-25T00:38:03.521Z,99046.56
2023-03-25T00:38:50.004Z,99053.91
2023-03-25T00:39:31.798Z,99054.06
2023-03-25T00:40:14.126Z,99053.03
2023-03-25T00:40:55.829Z,99046.88
2023-03-25T00:41:37.709Z,99043.03
2023-03-25T00:42:26.112Z,99064.03
2023-03-25T00:43:08.113Z,99069.72
2023-03-25T00:43:52.310Z,99063.59
2023-03-25T00:44:34.820Z,99056.47
2023-03-25T00:45:16.955Z,99056.66
2023-03-25T00:45:58.693Z,99046.84
2023-03-25T00:46:40.471Z,99050.13
2023-03-25T00:47:22.781Z,99061.75
2023-03-25T00:48:06.789Z,99039.72
2023-03-25T00:48:49.767Z,99076.81
2023-03-25T00:49:31.450Z,99070.50
2023-03-25T00:50:13.757Z,99057.03
2023-03-25T00:50:55.922Z,99061.13
2023-03-25T00:51:52.439Z,99052.75
2023-03-25T00:52:35.361Z,99046.66
2023-03-25T00:53:17.089Z,99045.81
2023-03-25T00:54:03.278Z,99047.25
2023-03-25T00:54:45.857Z,99040.94
2023-03-25T00:55:27.573Z,99039.53
2023-03-25T00:56:09.300Z,99045.25
2023-03-25T00:56:52.719Z,99053.00
2023-03-25T00:57:34.711Z,99041.97
2023-03-25T00:58:16.426Z,99034.59
2023-03-25T00:58:58.274Z,99057.09
2023-03-25T00:59:41.132Z,99042.78
2023-03-25T01:00:22.905Z,99043.19
2023-03-25T01:01:16.489Z,99050.16
2023-03-25T01:01:58.680Z,99043.19
2023-03-25T01:02:40.572Z,99035.22
2023-03-25T01:03:24.102Z,99044.63
2023-03-25T01:04:12.083Z,99050.28
2023-03-25T01:04:55.051Z,99031.13
2023-03-25T01:05:37.505Z,99045.19
2023-03-25T01:06:21.597Z,99036.63
2023-03-25T01:07:03.580Z,99042.16
2023-03-25T01:07:45.441Z,99033.56
2023-03-25T01:08:29.603Z,99038.06
2023-03-25T01:09:13.972Z,99048.28
2023-03-25T01:09:57.127Z,99045.63
2023-03-25T01:10:38.888Z,99009.91
2023-03-25T01:11:23.456Z,99048.66
2023-03-25T01:12:05.463Z,99029.13
2023-03-25T01:12:47.364Z,99026.66
2023-03-25T01:13:29.097Z,99034.84
2023-03-25T01:14:19.854Z,99021.81
2023-03-25T01:15:01.806Z,99028.94
2023-03-25T01:15:43.518Z,99030.97
2023-03-25T01:16:25.641Z,99035.88
2023-03-25T01:17:07.952Z,99017.72
2023-03-25T01:17:49.675Z,99025.06
2023-03-25T01:18:34.881Z,99019.31
2023-03-25T01:19:16.494Z,99035.03
2023-03-25T01:19:58.175Z,99016.66
2023-03-25T01:20:40.498Z,99021.56
2023-03-25T01:21:23.052Z,99037.25
2023-03-25T01:22:05.301Z,99031.38
2023-03-25T01:22:47.062Z,99006.06
2023-03-25T01:23:28.729Z,99015.03
2023-03-25T01:24:13.619Z,99034.03
2023-03-25T01:24:55.388Z,99006.06
2023-03-25T01:25:37.614Z,99003.22
2023-03-25T01:26:19.276Z,99017.72
2023-03-25T01:27:01.050Z,99009.19
2023-03-25T01:27:44.211Z,99016.13
2023-03-25T01:28:26.381Z,99004.34
2023-03-25T01:29:08.170Z,99018.81
2023-03-25T01:29:50.228Z,99010.84
2023-03-25T01:30:32.192Z,99007.38
2023-03-25T01:31:15.850Z,99021.88
2023-03-25T01:31:58.012Z,99018.44
2023-03-25T01:32:39.811Z,99009.00
2023-03-25T01:33:21.759Z,99008.22
2023-03-25T01:34:03.436Z,99020.47
2023-03-25T01:34:46.931Z,99010.25
2023-03-25T01:35:28.760Z,99021.94
2023-03-25T01:36:12.850Z,99022.94
2023-03-25T01:36:55.461Z,99008.03
2023-03-25T01:37:39.086Z,99010.47
2023-03-25T01:38:21.236Z,99016.81
2023-03-25T01:39:05.652Z,99008.03
2023-03-25T01:39:47.310Z,99011.34
2023-03-25T01:40:29.026Z,99021.34
2023-03-25T01:41:10.994Z,99019.09
2023-03-25T01:41:55.063Z,99011.56
2023-03-25T01:42:36.792Z,99020.31
2023-03-25T01:43:18.576Z,99015.03
2023-03-25T01:44:22.763Z,99021.13
2023-03-25T01:45:16.532Z,99008.50
2023-03-25T01:45:58.973Z,99017.28
2023-03-25T01:46:47.014Z,99006.25
2023-03-25T01:47:29.321Z,98984.81
2023-03-25T01:48:19.686Z,98998.44
2023-03-25T01:49:04.661Z,99012.56
2023-03-25T01:49:46.776Z,99008.22
2023-03-25T01:50:29.337Z,99000.91
2023-03-25T01:51:26.084Z,99000.28
2023-03-25T01:52:16.749Z,99008.88
2023-03-25T01:53:01.877Z,98999.84
2023-03-25T01:53:43.722Z,99000.06
2023-03-25T01:54:27.460Z,99016.16
2023-03-25T01:55:09.901Z,98990.88
2023-03-25T01:55:53.021Z,98992.31
2023-03-25T01:56:39.069Z,98991.72
2023-03-25T01:57:23.348Z,99008.66
2023-03-25T01:58:18.243Z,99014.34
2023-03-25T01:59:02.912Z,99009.69
2023-03-25T01:59:44.809Z,98980.91
2023-03-25T02:00:26.923Z,98999.88
2023-03-25T02:01:13.787Z,99024.38
2023-03-25T02:01:58.213Z,99021.72
2023-03-25T02:02:42.715Z,99020.91
2023-03-25T02:03:25.306Z,99007.28
2023-03-25T02:04:11.992Z,99029.91
2023-03-25T02:05:00.548Z,99021.75
2023-03-25T02:05:42.151Z,99039.47
2023-03-25T02:06:33.062Z,99036.03
2023-03-25T02:07:16.562Z,99024.81
2023-03-25T02:07:59.377Z,99028.47
2023-03-25T02:08:41.753Z,99010.88
2023-03-25T02:09:26.412Z,99005.22
2023-03-25T02:10:09.776Z,99029.59
2023-03-25T02:10:52.891Z,99030.84
2023-03-25T02:11:35.674Z,99029.78
2023-03-25T02:12:17.305Z,99028.13
2023-03-25T02:12:59.579Z,99023.63
2023-03-25T02:13:42.116Z,99052.94
2023-03-25T02:14:28.817Z,99041.16
2023-03-25T02:15:11.226Z,99029.28
2023-03-25T02:16:21.881Z,99031.31
2023-03-25T02:17:03.599Z,99045.56
2023-03-25T02:18:02.790Z,99048.59
2023-03-25T02:19:13.507Z,99059.94
2023-03-25T02:20:22.826Z,99061.50
2023-03-25T02:21:23.359Z,99075.91
2023-03-25T02:22:47.569Z,99054.47
2023-03-25T02:24:14.362Z,99036.31
2023-03-25T02:25:26.213Z,99047.25
2023-03-25T02:26:16.478Z,99037.47
2023-03-25T02:27:00.779Z,99038.88
2023-03-25T02:28:03.312Z,99045.13
2023-03-25T02:29:02.000Z,99042.22
2023-03-25T02:30:15.082Z,99031.41
2023-03-25T02:31:11.283Z,99032.38
2023-03-25T02:32:24.576Z,99043.31
2023-03-25T02:33:33.759Z,99037.63
2023-03-25T02:34:46.278Z,99044.09
2023-03-25T02:35:49.787Z,99030.16
2023-03-25T02:37:03.297Z,99040.00
2023-03-25T02:38:06.329Z,99049.75
2023-03-25T02:39:01.301Z,99035.44
2023-03-25T02:39:48.564Z,99054.47
2023-03-25T02:41:20.392Z,99054.28
2023-03-25T02:42:12.326Z,99061.00
2023-03-25T02:43:23.129Z,99046.47
2023-03-25T02:44:12.843Z,99047.09
2023-03-25T02:45:12.525Z,99061.81
2023-03-25T02:45:57.769Z,99063.53
2023-03-25T02:46:47.846Z,99052.69
2023-03-25T02:47:36.421Z,99042.25
2023-03-25T02:48:23.604Z,99056.28
2023-03-25T02:49:10.625Z,99064.94
2023-03-25T02:49:58.687Z,99066.19
2023-03-25T02:50:52.163Z,99053.13
2023-03-25T02:52:06.343Z,99063.00
2023-03-25T02:52:52.734Z,99056.63
2023-03-25T02:53:37.285Z,99047.25
2023-03-25T02:54:24.156Z,99045.25
2023-03-25T02:55:10.338Z,99058.13
2023-03-25T02:55:55.591Z,99055.69
2023-03-25T02:56:39.490Z,99060.53
2023-03-25T02:57:23.017Z,99054.00
2023-03-25T02:58:09.230Z,99045.88
2023-03-25T02:58:55.521Z,99035.25
2023-03-25T02:59:38.996Z,99054.00
2023-03-25T03:00:28.576Z,99048.78
2023-03-25T03:01:10.501Z,99037.09
2023-03-25T03:01:58.565Z,99041.59
2023-03-25T03:03:01.344Z,99050.59
2023-03-25T03:03:45.375Z,99028.34
2023-03-25T03:04:27.704Z,99033.00
2023-03-25T03:05:24.027Z,99026.44
2023-03-25T03:06:07.075Z,99026.25
2023-03-25T03:06:49.832Z,99034.88
2023-03-25T03:07:41.605Z,99035.06
2023-03-25T03:08:41.736Z,99043.69
2023-03-25T03:09:35.032Z,99048.13
2023-03-25T03:10:30.177Z,99039.13
2023-03-25T03:11:29.848Z,99048.13
2023-03-25T03:12:42.917Z,99048.38
2023-03-25T03:13:49.574Z,99041.25
2023-03-25T03:15:01.799Z,99037.03
2023-03-25T03:15:51.084Z,99028.66
2023-03-25T03:16:44.689Z,99024.19
2023-03-25T03:17:41.418Z,99025.19
2023-03-25T03:18:53.026Z,99044.97
2023-03-25T03:19:47.102Z,99041.69
2023-03-25T03:20:41.459Z,99025.09
2023-03-25T03:21:32.547Z,99028.34
2023-03-25T03:22:26.324Z,99054.88
2023-03-25T03:23:24.797Z,99040.22
2023-03-25T03:24:16.571Z,99032.56
2023-03-25T03:25:01.343Z,99042.03
2023-03-25T03:25:53.834Z,99027.94
2023-03-25T03:26:46.397Z,99044.88
2023-03-25T03:27:35.832Z,99031.16
2023-03-25T03:28:32.091Z,99041.16
2023-03-25T03:29:21.541Z,99028.47
2023-03-25T03:30:06.167Z,99039.41
2023-03-25T03:31:11.997Z,99052.03
2023-03-25T03:32:06.300Z,99053.47
2023-03-25T03:33:03.710Z,99049.19
2023-03-25T03:33:53.570Z,99036.50
2023-03-25T03:34:57.438Z,98979.69
2023-03-25T03:36:02.664Z,99055.63
2023-03-25T03:36:50.035Z,99059.88
2023-03-25T03:37:40.767Z,99059.66
2023-03-25T03:38:25.939Z,99059.28
2023-03-25T03:39:16.910Z,99056.44
2023-03-25T03:39:58.697Z,99051.88
2023-03-25T03:40:45.334Z,99068.47
2023-03-25T03:41:29.024Z,99058.91
2023-03-25T03:42:26.186Z,99064.19
2023-03-25T03:43:16.308Z,99054.00
2023-03-25T03:44:02.738Z,99059.91
2023-03-25T03:44:50.122Z,99051.16
2023-03-25T03:45:42.780Z,99057.81
2023-03-25T03:46:34.137Z,99048.22
2023-03-25T03:47:21.628Z,99061.50
2023-03-25T03:48:09.941Z,99052.06
2023-03-25T03:48:55.825Z,99066.56
2023-03-25T03:49:49.744Z,99051.56
2023-03-25T03:50:37.297Z,99064.84
2023-03-25T03:51:30.894Z,98968.56
2023-03-25T03:52:17.842Z,99073.25
2023-03-25T03:53:13.216Z,99082.84
2023-03-25T03:54:00.543Z,99071.03
2023-03-25T03:54:50.920Z,99055.28
2023-03-25T03:55:41.833Z,99069.00
2023-03-25T03:56:32.236Z,99072.44
2023-03-25T03:57:16.730Z,99074.28
2023-03-25T03:58:06.009Z,99074.09
2023-03-25T03:58:50.965Z,99076.31
2023-03-25T03:59:34.567Z,99069.84
2023-03-25T04:00:22.547Z,99056.34
2023-03-25T04:01:13.994Z,99061.09
2023-03-25T04:02:00.801Z,99045.31
2023-03-25T04:02:50.878Z,99054.78
2023-03-25T04:03:39.782Z,99064.56
2023-03-25T04:04:26.781Z,99057.97
2023-03-25T04:05:12.357Z,99074.09
2023-03-25T04:06:01.289Z,99076.53
2023-03-25T04:06:56.907Z,99063.06
2023-03-25T04:07:54.933Z,99083.44
2023-03-25T04:09:09.171Z,99070.22
2023-03-25T04:09:54.996Z,99072.88
2023-03-25T04:11:07.876Z,99080.78
2023-03-25T04:11:59.761Z,99088.94
2023-03-25T04:12:45.931Z,99078.28
2023-03-25T04:13:33.788Z,99090.56
2023-03-25T04:14:15.688Z,99072.00
2023-03-25T04:15:01.342Z,99075.09
2023-03-25T04:15:43.443Z,99068.53
2023-03-25T04:16:25.401Z,99076.72
2023-03-25T04:17:07.277Z,99076.66
2023-03-25T04:17:49.027Z,99082.84
2023-03-25T04:18:33.712Z,99063.06
2023-03-25T04:19:18.512Z,99078.97
2023-03-25T04:20:01.653Z,99065.34
2023-03-25T04:20:44.960Z,99073.13
2023-03-25T04:21:29.898Z,99054.00
2023-03-25T04:22:13.666Z,99046.59
2023-03-25T04:22:55.654Z,99076.03
2023-03-25T04:23:39.353Z,99063.94
2023-03-25T04:24:20.976Z,99077.44
2023-03-25T04:25:02.687Z,99062.19
2023-03-25T04:25:47.695Z,99065.47
2023-03-25T04:26:33.623Z,99063.22
2023-03-25T04:27:16.813Z,99060.53
2023-03-25T04:27:59.963Z,99059.53
2023-03-25T04:28:44.513Z,99079.25
2023-03-25T04:29:26.230Z,99059.34
2023-03-25T04:30:09.569Z,99053.25
2023-03-25T04:30:55.848Z,99065.44
2023-03-25T04:31:37.864Z,99065.25
2023-03-25T04:32:19.576Z,99066.28
2023-03-25T04:33:01.681Z,99042.22
2023-03-25T04:33:48.447Z,99048.34
2023-03-25T04:34:30.261Z,99060.75
2023-03-25T04:35:12.907Z,99063.63
2023-03-25T04:35:54.687Z,99075.22
2023-03-25T04:36:41.713Z,99048.72
2023-03-25T04:37:25.656Z,99073.59
2023-03-25T04:38:08.104Z,99073.84
2023-03-25T04:38:49.706Z,99064.44
2023-03-25T04:39:32.196Z,99079.38
2023-03-25T04:40:16.326Z,99069.56
2023-03-25T04:40:58.371Z,99073.72
2023-03-25T04:41:40.276Z,99078.00
2023-03-25T04:42:25.772Z,99068.19
2023-03-25T04:43:07.572Z,99084.66
2023-03-25T04:43:49.306Z,99069.41
2023-03-25T04:44:33.773Z,99070.63
2023-03-25T04:45:19.275Z,99067.94
2023-03-25T04:46:02.650Z,99065.94
2023-03-25T04:46:44.353Z,99064.03
2023-03-25T04:47:26.287Z,99087.94
2023-03-25T04:48:19.948Z,99078.34
2023-03-25T04:49:05.950Z,99075.06
2023-03-25T04:49:48.039Z,99082.00
2023-03-25T04:50:30.272Z,99078.81
2023-03-25T04:51:13.413Z,99087.00
2023-03-25T04:51:55.730Z,99069.25
2023-03-25T04:52:40.574Z,99091.47
2023-03-25T04:53:22.640Z,99087.81
2023-03-25T04:54:04.294Z,99071.69
2023-03-25T04:54:46.397Z,99068.59
2023-03-25T04:55:29.851Z,99091.31
2023-03-25T04:56:17.443Z,99089.28
2023-03-25T04:56:59.292Z,99069.91
2023-03-25T04:57:41.059Z,99089.66
2023-03-25T04:58:22.960Z,99075.78
2023-03-25T04:59:04.599Z,99073.78
2023-03-25T04:59:46.503Z,99081.09
2023-03-25T05:00:28.286Z,99084.75
2023-03-25T05:01:21.543Z,99092.97
2023-03-25T05:02:05.892Z,99085.81
2023-03-25T05:02:49.963Z,99080.28
2023-03-25T05:03:32.781Z,99098.59
2023-03-25T05:04:17.321Z,99094.72
2023-03-25T05:05:02.220Z,99086.56
2023-03-25T05:05:43.911Z,99066.94
2023-03-25T05:06:26.340Z,99071.78
2023-03-25T05:07:08.424Z,99069.97
2023-03-25T05:07:53.175Z,99064.66
2023-03-25T05:08:34.929Z,99071.84
2023-03-25T05:09:19.986Z,99087.56
2023-03-25T05:10:01.727Z,99089.56
2023-03-25T05:10:43.939Z,99012.31
2023-03-25T05:11:25.617Z,99068.31
2023-03-25T05:12:11.141Z,99082.84
2023-03-25T05:12:59.092Z,99091.28
2023-03-25T05:13:40.859Z,99088.19
2023-03-25T05:14:22.640Z,99083.53
2023-03-25T05:15:04.786Z,99084.72
2023-03-25T05:15:47.899Z,99081.44
2023-03-25T05:16:29.875Z,99078.19
2023-03-25T05:17:11.527Z,99087.94
2023-03-25T05:17:53.320Z,99089.56
2023-03-25T05:18:35.685Z,99072.22
2023-03-25T05:19:18.951Z,99093.84
2023-03-25T05:20:00.770Z,99065.94
2023-03-25T05:20:46.859Z,99091.84
2023-03-25T05:21:28.555Z,99095.75
2023-03-25T05:22:10.844Z,99085.16
2023-03-25T05:22:53.565Z,99069.63
2023-03-25T05:23:35.306Z,99070.25
2023-03-25T05:24:17.401Z,99078.00
2023-03-25T05:24:59.060Z,99076.59
2023-03-25T05:25:41.541Z,99096.59
2023-03-25T05:26:23.325Z,99085.75
2023-03-25T05:27:04.953Z,99088.84
2023-03-25T05:27:46.670Z,99083.91
2023-03-25T05:28:28.367Z,99053.72
2023-03-25T05:29:14.342Z,99081.25
2023-03-25T05:29:58.920Z,99077.75
2023-03-25T05:30:42.297Z,99070.63
2023-03-25T05:31:23.972Z,99068.41
2023-03-25T05:32:05.976Z,99099.44
2023-03-25T05:32:50.956Z,99082.72
2023-03-25T05:33:43.317Z,99100.31
2023-03-25T05:34:25.651Z,99097.59
2023-03-25T05:35:08.241Z,99107.63
2023-03-25T05:35:50.740Z,99116.94
2023-03-25T05:36:32.682Z,99111.34
2023-03-25T05:37:14.785Z,99112.44
2023-03-25T05:37:56.765Z,99106.31
2023-03-25T05:38:41.719Z,99097.28
2023-03-25T05:39:24.427Z,99093.66
2023-03-25T05:40:15.100Z,99107.13
2023-03-25T05:40:57.037Z,99087.31
2023-03-25T05:41:39.074Z,99101.41
2023-03-25T05:42:24.151Z,99104.81
2023-03-25T05:43:06.744Z,99100.94
2023-03-25T05:43:50.893Z,99081.50
2023-03-25T05:44:32.664Z,99114.72
2023-03-25T05:45:16.408Z,99100.03
2023-03-25T05:45:58.130Z,99098.34
2023-03-25T05:46:39.900Z,99111.63
2023-03-25T05:47:23.873Z,99091.63
2023-03-25T05:48:06.033Z,99094.25
2023-03-25T05:48:47.990Z,99076.66
2023-03-25T05:49:29.870Z,99109.16
2023-03-25T05:50:11.922Z,99101.63
2023-03-25T05:50:56.542Z,99096.53
2023-03-25T05:51:38.511Z,99090.81
2023-03-25T05:52:24.491Z,99110.19
2023-03-25T05:53:06.290Z,99111.00
2023-03-25T05:53:52.202Z,99103.88
2023-03-25T05:54:33.808Z,99081.19
2023-03-25T05:55:20.703Z,99114.53
2023-03-25T05:56:02.753Z,99109.59
2023-03-25T05:56:44.632Z,99126.91
2023-03-25T05:57:26.352Z,99102.19
2023-03-25T05:58:08.112Z,99058.81
2023-03-25T05:58:52.086Z,99126.47
2023-03-25T05:59:33.792Z,99127.06
2023-03-25T06:00:19.148Z,99142.97
2023-03-25T06:01:03.143Z,99125.03
2023-03-25T06:01:47.382Z,99133.22
2023-03-25T06:02:30.566Z,99122.06
2023-03-25T06:03:13.118Z,99115.28
2023-03-25T06:03:54.851Z,99129.22
2023-03-25T06:04:41.375Z,99122.94
2023-03-25T06:05:25.968Z,99113.38
2023-03-25T06:06:13.912Z,99127.88
2023-03-25T06:06:55.736Z,99122.56
2023-03-25T06:07:37.541Z,99119.72
2023-03-25T06:08:25.893Z,99133.63
2023-03-25T06:09:08.019Z,99124.31
2023-03-25T06:09:50.073Z,99124.94
2023-03-25T06:10:33.343Z,99128.38
2023-03-25T06:11:15.020Z,99117.75
2023-03-25T06:11:56.688Z,99126.53
2023-03-25T06:12:39.576Z,99138.75
2023-03-25T06:13:21.731Z,99137.75
2023-03-25T06:14:04.813Z,99144.69
2023-03-25T06:14:47.440Z,99145.31
2023-03-25T06:15:33.590Z,99121.84
2023-03-25T06:16:18.620Z,99128.00
2023-03-25T06:17:00.355Z,99131.25
2023-03-25T06:17:42.580Z,99126.97
2023-03-25T06:18:27.258Z,99135.56
2023-03-25T06:19:09.499Z,99136.03
2023-03-25T06:19:51.766Z,99143.56
2023-03-25T06:20:33.576Z,99142.38
2023-03-25T06:21:15.236Z,99133.38
2023-03-25T06:21:56.976Z,99138.28
2023-03-25T06:22:40.055Z,99132.63
2023-03-25T06:23:24.891Z,99124.06
2023-03-25T06:24:07.123Z,99137.72
2023-03-25T06:24:49.001Z,99138.72
2023-03-25T06:25:31.314Z,99121.16
2023-03-25T06:26:12.976Z,99130.97
2023-03-25T06:26:54.682Z,99133.25
2023-03-25T06:27:40.280Z,99124.50
2023-03-25T06:28:23.318Z,99115.09
2023-03-25T06:29:05.058Z,99127.13
2023-03-25T06:29:47.213Z,99124.50
2023-03-25T06:30:29.627Z,99116.94
2023-03-25T06:31:16.958Z,99136.72
2023-03-25T06:31:58.723Z,99141.03
2023-03-25T06:32:40.458Z,99131.06
2023-03-25T06:33:43.174Z,99127.78
2023-03-25T06:34:23.986Z,99123.13
2023-03-25T06:35:07.604Z,99129.88
2023-03-25T06:35:53.707Z,99139.66
2023-03-25T06:36:35.768Z,99126.63
2023-03-25T06:37:17.413Z,99124.84
2023-03-25T06:37:59.271Z,99116.00
2023-03-25T06:38:48.401Z,99117.22
2023-03-25T06:39:31.514Z,99123.53
2023-03-25T06:40:15.777Z,99126.03
2023-03-25T06:40:57.437Z,99124.78
2023-03-25T06:41:39.168Z,99108.47
2023-03-25T06:42:33.455Z,99132.16
2023-03-25T06:43:35.516Z,99115.44
2023-03-25T06:44:35.577Z,99118.91
2023-03-25T06:45:38.788Z,99123.78
2023-03-25T06:46:40.841Z,99137.31
2023-03-25T06:47:31.349Z,99125.69
2023-03-25T06:48:13.015Z,99114.28
2023-03-25T06:48:54.743Z,99123.09
2023-03-25T06:49:36.551Z,99131.94
2023-03-25T06:53:17.980Z,99140.34
2023-03-25T06:53:59.693Z,99142.59
2023-03-25T06:54:41.508Z,99133.41
2023-03-25T06:55:23.202Z,99126.03
2023-03-25T06:56:05.407Z,99148.09
2023-03-25T06:56:47.407Z,99129.09
2023-03-25T06:57:29.203Z,99141.09
2023-03-25T06:58:11.567Z,99145.00
2023-03-25T06:58:53.308Z,99127.66
2023-03-25T06:59:34.953Z,99117.06
2023-03-25T07:00:20.381Z,99132.97
2023-03-25T07:01:07.307Z,99148.91
2023-03-25T07:01:49.468Z,99139.91
2023-03-25T07:02:31.160Z,99119.72
2023-03-25T07:03:12.855Z,99143.41
2023-03-25T07:03:54.704Z,99134.22
2023-03-25T07:04:36.528Z,99156.09
2023-03-25T07:05:18.473Z,99148.19
2023-03-25T07:06:00.265Z,99143.06
2023-03-25T07:06:41.981Z,99152.66
2023-03-25T07:07:23.714Z,99145.34
2023-03-25T07:08:05.595Z,99144.91
2023-03-25T07:08:47.866Z,99148.63
2023-03-25T07:09:29.554Z,99144.13
2023-03-25T07:10:14.069Z,99133.75
2023-03-25T07:11:01.985Z,99130.69
2023-03-25T07:11:43.840Z,99157.22
2023-03-25T07:12:25.779Z,99142.72
2023-03-25T07:13:09.185Z,99147.66
2023-03-25T07:13:53.816Z,99151.94
2023-03-25T07:14:35.502Z,99143.34
2023-03-25T07:15:17.336Z,99156.22
2023-03-25T07:16:01.239Z,99167.88
2023-03-25T07:16:43.040Z,99156.63
2023-03-25T07:17:24.976Z,99152.53
2023-03-25T07:18:06.687Z,99152.16
2023-03-25T07:18:50.210Z,99147.03
2023-03-25T07:19:31.942Z,99158.06
2023-03-25T07:20:15.836Z,99144.38
2023-03-25T07:20:59.615Z,99160.53
2023-03-25T07:21:41.355Z,99136.63
2023-03-25T07:22:23.050Z,99158.28
2023-03-25T07:23:04.691Z,99160.13
2023-03-25T07:23:46.496Z,99157.44
2023-03-25T07:24:28.363Z,99145.41
2023-03-25T07:25:10.283Z,99146.19
2023-03-25T07:25:52.911Z,99143.97
2023-03-25T07:26:35.041Z,99147.84
2023-03-25T07:27:16.862Z,99133.53
2023-03-25T07:28:05.976Z,99141.72
2023-03-25T07:28:50.438Z,99133.53
2023-03-25T07:29:32.156Z,99125.00
2023-03-25T07:30:14.073Z,99129.69
2023-03-25T07:30:55.760Z,99110.31
2023-03-25T07:31:37.662Z,99120.50
2023-03-25T07:32:19.509Z,99138.88
2023-03-25T07:33:01.412Z,99118.47
2023-03-25T07:33:43.741Z,99141.50
2023-03-25T07:34:25.650Z,99123.94
2023-03-25T07:35:09.361Z,99135.19
2023-03-25T07:35:51.396Z,99144.78
2023-03-25T07:36:33.204Z,99140.31
2023-03-25T07:37:14.933Z,99110.13
2023-03-25T07:37:56.683Z,99131.94
2023-03-25T07:38:38.356Z,99137.81
2023-03-25T07:39:20.117Z,99107.00
2023-03-25T07:40:01.939Z,99133.53
2023-03-25T07:40:43.601Z,99129.88
2023-03-25T07:41:32.072Z,99135.16
2023-03-25T07:42:24.555Z,99123.75
2023-03-25T07:43:26.927Z,99138.41
2023-03-25T07:44:11.365Z,99127.19
2023-03-25T07:44:53.943Z,99139.22
2023-03-25T07:45:43.795Z,99135.13
2023-03-25T07:46:26.450Z,99140.31
2023-03-25T07:47:08.222Z,99141.78
2023-03-25T07:47:50.802Z,99147.25
2023-03-25T07:48:32.805Z,99130.19
2023-03-25T07:49:16.348Z,99139.28
2023-03-25T07:49:57.950Z,99143.97
2023-03-25T07:50:40.785Z,99145.66
2023-03-25T07:51:22.490Z,99122.19
2023-03-25T07:52:04.270Z,99131.38
2023-03-25T07:52:46.239Z,99134.94
2023-03-25T07:53:27.891Z,99118.88
2023-03-25T07:54:09.681Z,99132.78
2023-03-25T07:54:51.440Z,99112.19
2023-03-25T07:55:33.078Z,99140.59
2023-03-25T07:56:15.534Z,99136.09
2023-03-25T07:56:57.616Z,99126.09
2023-03-25T07:57:42.194Z,99131.81
2023-03-25T07:58:24.001Z,99128.53
2023-03-25T07:59:05.992Z,99151.03
2023-03-25T07:59:47.692Z,99121.22
2023-03-25T08:00:30.246Z,99145.34
2023-03-25T08:01:12.161Z,99148.19
2023-03-25T08:01:53.896Z,99130.66
2023-03-25T08:02:35.666Z,99138.19
2023-03-25T08:03:17.783Z,99113.91
2023-03-25T08:03:59.540Z,99136.56
2023-03-25T08:04:41.282Z,99137.97
2023-03-25T08:05:23.006Z,99123.53
2023-03-25T08:06:05.050Z,99077.63
2023-03-25T08:06:46.769Z,99142.09
2023-03-25T08:07:28.889Z,99151.50
2023-03-25T08:08:10.628Z,99141.69
2023-03-25T08:08:52.310Z,99128.03
2023-03-25T08:09:33.969Z,99124.97
2023-03-25T08:10:16.232Z,99139.69
2023-03-25T08:10:58.134Z,99134.75
2023-03-25T08:11:39.794Z,99138.38
2023-03-25T08:12:21.440Z,99115.53
2023-03-25T08:13:03.102Z,99136.75
2023-03-25T08:13:44.702Z,99122.91
2023-03-25T08:14:27.163Z,99138.63
2023-03-25T08:15:09.383Z,99147.81
2023-03-25T08:15:51.969Z,99137.81
2023-03-25T08:16:33.820Z,99127.00
2023-03-25T08:17:15.889Z,99121.44
2023-03-25T08:17:57.638Z,99137.94
2023-03-25T08:18:39.360Z,99124.84
2023-03-25T08:19:21.062Z,99143.56
2023-03-25T08:20:04.895Z,99147.50
2023-03-25T08:20:46.582Z,99133.84
2023-03-25T08:21:28.267Z,99149.78
2023-03-25T08:22:09.918Z,99150.25
2023-03-25T08:22:51.581Z,99127.84
2023-03-25T08:23:36.853Z,99146.19
2023-03-25T08:24:18.507Z,99146.81
2023-03-25T08:25:00.289Z,99130.28
2023-03-25T08:25:42.037Z,99156.63
2023-03-25T08:26:25.963Z,99132.94
2023-03-25T08:27:15.007Z,99152.75
2023-03-25T08:27:58.292Z,99143.97
2023-03-25T08:28:40.031Z,99144.38
2023-03-25T08:29:22.157Z,99142.31
2023-03-25T08:30:05.038Z,99145.38
2023-03-25T08:30:46.753Z,99132.53
2023-03-25T08:31:34.167Z,99138.84
2023-03-25T08:32:16.211Z,99145.59
2023-03-25T08:32:57.952Z,99143.34
2023-03-25T08:33:41.001Z,99123.75
2023-03-25T08:34:23.550Z,99156.84
2023-03-25T08:35:10.673Z,99130.91
2023-03-25T08:35:52.723Z,99146.22
2023-03-25T08:36:34.635Z,99147.84
2023-03-25T08:37:16.501Z,99149.91
2023-03-25T08:38:01.314Z,99145.38
2023-03-25T08:38:43.220Z,99157.03
2023-03-25T08:39:29.929Z,99156.41
2023-03-25T08:40:11.817Z,99143.97
2023-03-25T08:40:53.801Z,99166.22
2023-03-25T08:41:37.791Z,99149.28
2023-03-25T08:42:19.559Z,99161.31
2023-03-25T08:43:04.187Z,99142.53
2023-03-25T08:43:46.093Z,99157.44
2023-03-25T08:44:27.876Z,99118.44
2023-03-25T08:45:10.509Z,99149.44
2023-03-25T08:45:52.592Z,99133.06
2023-03-25T08:46:34.803Z,99130.22
2023-03-25T08:47:16.625Z,99133.88
2023-03-25T08:47:58.777Z,99138.31
2023-03-25T08:48:40.731Z,99124.88
2023-03-25T08:49:22.627Z,99122.56
2023-03-25T08:50:04.665Z,99123.19
2023-03-25T08:50:46.422Z,99138.28
2023-03-25T08:51:28.134Z,99138.63
2023-03-25T08:52:10.326Z,99147.56
2023-03-25T08:52:53.669Z,99147.13
2023-03-25T08:53:35.453Z,99150.97
2023-03-25T08:54:17.345Z,99129.88
2023-03-25T08:54:59.121Z,99150.06
2023-03-25T08:55:40.887Z,99150.00